Terminal Aerodrome Forecast
Issued by NWS

Home | Current Version | Previous Version | Text Only | Print | Product List | Glossary On
Versions: 1 2 3 4 5 6 7 8 9 10 11 12 13 14 15 16 17 18 19 20 21 22 23 24
000
FTUS43 KGRR 201700
TAFMKG
TAF
KMKG 201740Z 2018/2118 32008KT P6SM OVC050
     FM202200 33012G22KT P6SM VCSH OVC025
     FM210100 34010KT P6SM -DZ OVC015
     FM211200 35008KT P6SM BKN025=

USA.gov is the U.S. government's official web portal to all federal, state and local government web resources and services.